FAAP weather

Arnot Power Station Airport
Arnot Power Station, Mpumalanga, South Africa

Public forecast

Using degrees Celsius for public forecast. Weather courtesy of forecast.io.

METAR (pilot weather report)

Report is more than 6 hours old.

Closest report is Ermelo Airport, 34.5 nm (63.9 km) SSE. Retrieved 2019/05/26 08:48 UTC (8 hours ago):

FAEO 260848Z 22007KT CAVOK 17/05 Q1029

TAF (pilot weather forecast)

Forecast is more than 12 hours old.

Closest forecast is Ermelo Airport, 34.5 nm (63.9 km) SSE. Retrieved 2017/06/05 04:55 UTC (2 years ago):

TAF FAEO 050300Z 0504/0515 09006KT CAVOK TX18/0513ZTN05/0504Z